AirNav   Pilot Hours Calculator
 
 1683 users online  

36AK Flyway Farm Airstrip
Wasilla, Alaska, USA

GOING TO WASILLA?


FAA INFORMATION EFFECTIVE 22 APRIL 2021

Location

FAA Identifier: 36AK
Lat/Long: 61-20-36.0200N 150-03-59.8700W
61-20.600333N 150-03.997833W
61.3433389,-150.0666306
(estimated)
Elevation: 150 ft. / 46 m (estimated)
Variation: 22E (2000)
From city: 25 miles SW of WASILLA, AK
Time zone: UTC -8 (UTC -9 during Standard Time)
Zip code: 99687

Airport Operations

Airport use: Private use. Permission required prior to landing
Activation date: 07/2002
Control tower: no
ARTCC: ANCHORAGE CENTER
FSS: KENAI FLIGHT SERVICE STATION [907-283-7211]
Attendance: UNATNDD
Wind indicator: yes
Segmented circle: no

Airport Communications

CTAF: 122.9
WX ASOS at LHD (10 nm S): PHONE 907-245-5432
WX ASOS at MRI (10 nm SE): 124.25 (907-271-5277)
WX ASOS at ANC (10 nm S): PHONE 907-271-5278
WX ASOS at FRN (13 nm E): 134.25
WX AWOS-3P at BCV (17 nm E): 135.55 (907-688-0826)

Nearby radio navigation aids

VOR radial/distance  VOR name  Freq  Var
TEDr326/11.0ANCHORAGE VOR/DME113.1518E
BGQr173/13.9BIG LAKE VORTAC112.5019E

Airport Services

Runway Information

Runway 18/36

Dimensions: 2000 x 75 ft. / 610 x 23 m
Surface: turf
Runway edge markings: RY OUTLINED WITH ORANGE CONES
RUNWAY 18  RUNWAY 36
Traffic pattern: leftleft

Runway 9/27

Dimensions: 1300 x 75 ft. / 396 x 23 m
Surface: turf
Runway edge markings: RY OUTLINED WITH ORANGE CONES
RUNWAY 9  RUNWAY 27
Traffic pattern: leftleft

Runway 17W/35W

Dimensions: 2100 x 100 ft. / 640 x 30 m
Surface: water
RUNWAY 17W  RUNWAY 35W
Traffic pattern: leftleft

Airport Ownership and Management from official FAA records

Ownership: Privately-owned
Owner: FLYWAY FARM, LLC
2825 ILLIAMNA AVE
ANCHORAGE, AK 99517
Phone 907-204-8907
Manager: DEE HANSON
4125 PTARMIGAN TERRACE
ANCHORAGE, AK 99516
Phone (907) 440-6488

Airport Operational Statistics

Aircraft based on the field: 3
Single engine airplanes: 3
    

Instrument Procedures

There are no published instrument procedures at 36AK.

Some nearby airports with instrument procedures:

PAED - Elmendorf Air Force Base (9 nm SE)
PAMR - Merrill Field Airport (10 nm SE)
PANC - Ted Stevens Anchorage International Airport (10 nm S)
PAFR - Bryant Army Airfield Heliport (13 nm E)
PAGQ - Big Lake Airport (14 nm NE)
 
Loc | Ops | Rwys | IFR | FBO | Links
Com | Nav | Svcs | Stats | Notes

Crowley
 
Area around 36AK (Flyway Farm Airstrip)
 
Road maps at: MapQuest Bing Google
 
Aerial photo
No photo
 
Sectional chart

 
Airport distance calculator
Flying to Flyway Farm Airstrip? Find the distance to fly.

From to 36AK

Sunrise and sunset
Times for 17-May-2021
 Local
(UTC-8)
 Zulu
(UTC)
Morning civil twilight03:5311:53
Sunrise05:0713:07
Sunset22:4606:46
Evening civil twilight00:0008:00

Current date and time
Zulu (UTC)  17-May-2021 19:04:44
Local (UTC-8)  17-May-2021 11:04:44
 
METAR
PAED 
10nm SE 
171856Z 27007KT 10SM FEW060 FEW100 10/02 A2998 RMK AO2A SLP149 T00960020 $
PAMR 
10nm SE 
171853Z 28006KT 10SM CLR 10/01 A2998 RMK AO2 SLP153 T01000006 $
PALH 
10nm S 
171853Z 33004KT 10SM CLR 09/02 A2999 RMK AO2 SLP156 T00890017
PANC 
11nm S 
171853Z 33006KT 10SM FEW020 FEW035 SCT200 08/01 A2998 RMK AO2 SLP154 T00830011
PAFR 
13nm E 
171858Z AUTO 19005KT 10SM BKN033 09/01 A2994 RMK AO2 SLP146 T00890007 PNO $
PABV 
16nm E 
171856Z AUTO VRB03KT 10SM CLR 08/03 A2999 RMK AO2 SLP163 T00830028
TAF
PAED 
10nm SE 
171800Z 1718/1900 24009KT 9999 FEW060 FEW100 QNH2996INS BECMG 1721/1722 24009KT 9999 FEW060 QNH2996INS BECMG 1819/1820 VRB06KT 9999 FEW200 QNH3002INS TX15/1800Z TN04/1814Z
PANC 
11nm S 
171743Z 1718/1824 29008KT P6SM FEW010 FM180800 VRB05KT P6SM SKC
NOTAMs
Click for the latest NOTAMs
NOTAMs are issued by the DoD/FAA and will open in a separate window not controlled by AirNav.

 

 
 

Would you like to see your business listed on this page?

 If your business provides an interesting product or service to pilots, flight crews, aircraft, or users of the Flyway Farm Airstrip, you should consider listing it here.  To start the listing process, click on the button below
 
Add a business
 

Other Pages about Flyway Farm Airstrip

Update a link
 
Copyright © AirNav, LLC. All rights reserved. Privacy Policy  Contact